Lone Tree, Illinois
Current Conditions -  °F | °C
As of 9:35 AM on Friday 28 Nov 2014 (Local Time) from KC75 Reporting Station
Clear Clear  
Wind Chill: -8°   Ceiling: Unl
Heat Index: -3°   Visibility: 10mi
Dew Point: -8°   Wind: 9mph
Humidity: 70%   Direction: 160°SSE
Pressure: 30.17"   Gusts: NA
Location:  41.2776°N, 89.5099°W
Report Text: KC75 281535Z AUTO 16008KT 10SM CLR M03/M08 A3017 RMK AO2 T10321079
Loading
Personal Weather Stations






























Interactive Weather Map New forecast layout! Learn more

10-Day Weather Forecast

Advertisements
Track Severe Weather on mobile